Time;durP1;ratioP1;P1;durP2;ratioP2;P2;SDS_P1;SDS_P2;PMS_P1;PMS_P2;Temp;Humidity;BMP_temperature;BMP_pressure;BME280_temperature;BME280_humidity;BME280_pressure;Samples;Min_cycle;Max_cycle;Signal;HPM_P1;HPM_P2
2022/03/16 00:00:40;;;;;;;8.55;5.72;;;;;;;20.77;33.25;101886.50;4197582;28;20044;-69
2022/03/16 00:02:41;;;;;;;7.97;5.22;;;;;;;20.77;33.15;101881.78;4197140;28;20119;-69
2022/03/16 00:04:43;;;;;;;9.30;5.15;;;;;;;20.77;33.71;101881.78;4197729;28;20101;-69
2022/03/16 00:06:44;;;;;;;9.35;5.40;;;;;;;20.77;33.28;101886.50;4198710;28;20029;-69
2022/03/16 00:08:45;;;;;;;8.25;5.10;;;;;;;20.77;33.33;101886.50;4198801;28;20098;-70
2022/03/16 00:10:47;;;;;;;9.05;5.07;;;;;;;20.77;33.47;101887.34;4197483;28;20036;-70
2022/03/16 00:12:48;;;;;;;9.45;5.32;;;;;;;20.61;33.46;101857.63;4198532;28;20074;-69
2022/03/16 00:14:50;;;;;;;12.82;5.65;;;;;;;20.77;33.60;101892.91;4199269;28;20110;-69
2022/03/16 00:16:52;;;;;;;9.82;6.45;;;;;;;20.77;33.28;101887.34;4199671;28;20037;-70
2022/03/16 00:18:53;;;;;;;9.00;5.80;;;;;;;20.72;33.40;101881.72;4180625;28;20045;-70
2022/03/16 00:20:55;;;;;;;9.93;5.60;;;;;;;20.76;33.39;101896.78;4199165;28;20094;-69
2022/03/16 00:22:57;;;;;;;13.75;5.80;;;;;;;20.74;33.33;101885.06;4198353;28;20044;-69
2022/03/16 00:25:02;;;;;;;11.38;5.57;;;;;;;20.76;33.51;101891.22;4197862;28;20488;-68
2022/03/16 00:27:04;;;;;;;10.65;5.20;;;;;;;20.77;33.41;101903.19;4181420;28;20459;-69
2022/03/16 00:29:08;;;;;;;10.00;5.75;;;;;;;20.76;33.60;101902.34;4198326;28;20040;-69
2022/03/16 00:31:11;;;;;;;9.02;5.22;;;;;;;20.77;33.16;101892.91;4198345;28;20078;-69
2022/03/16 00:33:15;;;;;;;10.18;5.40;;;;;;;20.75;33.52;101878.38;4198447;28;20052;-69
2022/03/16 00:35:17;;;;;;;7.25;5.40;;;;;;;20.76;33.15;101880.09;4198287;28;20488;-69
2022/03/16 00:37:18;;;;;;;7.28;4.88;;;;;;;20.77;33.48;101876.22;4198294;28;20045;-69
2022/03/16 00:39:20;;;;;;;12.05;5.55;;;;;;;20.76;33.55;101877.31;4197602;28;20040;-69
2022/03/16 00:41:24;;;;;;;10.15;5.03;;;;;;;20.77;33.51;101881.78;4198493;28;20102;-69
2022/03/16 00:43:25;;;;;;;9.98;5.47;;;;;;;20.76;33.47;101874.53;4198558;28;20048;-70
2022/03/16 00:45:27;;;;;;;8.35;5.38;;;;;;;20.75;33.13;101872.81;4198505;28;20040;-69
2022/03/16 00:47:34;;;;;;;7.80;5.28;;;;;;;20.75;33.44;101867.25;4196570;28;20044;-69
2022/03/16 00:49:35;;;;;;;9.13;5.28;;;;;;;20.76;33.47;101877.31;4199272;28;20071;-70
2022/03/16 00:51:38;;;;;;;5.95;4.65;;;;;;;20.76;33.34;101874.53;4196303;28;20032;-70
2022/03/16 00:53:40;;;;;;;7.95;5.43;;;;;;;20.75;33.19;101878.38;4197206;28;20036;-69
2022/03/16 00:55:42;;;;;;;8.23;5.30;;;;;;;20.75;33.41;101872.81;4200325;28;20045;-69
2022/03/16 00:57:48;;;;;;;7.93;5.13;;;;;;;20.76;33.12;101874.53;4202770;28;20109;-69
2022/03/16 00:59:49;;;;;;;8.10;5.25;;;;;;;20.76;33.02;101874.53;4199913;28;20029;-70
2022/03/16 01:01:51;;;;;;;9.35;5.18;;;;;;;20.74;33.09;101873.94;4199653;28;20091;-69
2022/03/16 01:03:52;;;;;;;8.98;5.18;;;;;;;20.74;33.40;101876.72;4199084;28;20044;-69
2022/03/16 01:05:53;;;;;;;7.78;5.30;;;;;;;20.67;33.26;101859.38;4200190;28;20044;-70
2022/03/16 01:07:55;;;;;;;10.85;5.45;;;;;;;20.71;33.47;101863.34;4200369;28;20090;-69
2022/03/16 01:09:56;;;;;;;9.38;5.60;;;;;;;20.74;33.46;101871.16;4197959;28;20446;-68
2022/03/16 01:11:58;;;;;;;8.25;4.85;;;;;;;20.75;33.18;101872.00;4204201;28;20045;-69
2022/03/16 01:14:00;;;;;;;8.25;5.93;;;;;;;20.71;33.16;101866.13;4200349;28;20040;-69
2022/03/16 01:16:01;;;;;;;8.02;5.38;;;;;;;20.72;33.51;101878.94;4198272;28;20106;-70
2022/03/16 01:18:06;;;;;;;8.73;4.88;;;;;;;20.74;33.45;101882.28;4200244;28;20041;-70
2022/03/16 01:20:08;;;;;;;8.77;5.80;;;;;;;20.73;33.50;101869.47;4198963;28;20045;-70
2022/03/16 01:22:09;;;;;;;9.40;5.38;;;;;;;20.74;33.44;101881.44;4181140;28;20037;-71
2022/03/16 01:24:11;;;;;;;7.07;4.93;;;;;;;20.74;33.53;101876.72;4199808;28;20442;-71
2022/03/16 01:26:13;;;;;;;9.32;5.90;;;;;;;20.75;33.56;101872.00;4200408;28;20024;-68
2022/03/16 01:28:14;;;;;;;6.95;5.05;;;;;;;20.74;33.68;101876.72;4200777;28;20421;-70
2022/03/16 01:30:15;;;;;;;7.97;5.57;;;;;;;20.67;33.48;101870.50;4199387;28;20094;-69
2022/03/16 01:32:17;;;;;;;7.05;5.03;;;;;;;20.66;33.52;101863.25;4198066;28;20082;-70
2022/03/16 01:34:22;;;;;;;7.30;4.90;;;;;;;20.66;33.27;101873.53;4181844;28;20171;-70
2022/03/16 01:36:25;;;;;;;9.43;5.93;;;;;;;20.74;33.42;101882.28;4201278;28;20074;-70
2022/03/16 01:38:26;;;;;;;9.25;5.25;;;;;;;20.69;33.30;101873.03;4203156;28;20067;-70
2022/03/16 01:40:27;;;;;;;8.27;4.95;;;;;;;20.66;33.47;101882.72;4182145;28;20075;-70
2022/03/16 01:42:29;;;;;;;8.93;5.70;;;;;;;20.74;33.52;101898.13;4180514;28;20095;-70
2022/03/16 01:44:45;;;;;;;7.10;5.35;;;;;;;20.72;33.41;101894.78;4182957;28;20045;-70
2022/03/16 01:46:46;;;;;;;8.40;5.32;;;;;;;20.72;33.15;101895.63;4183672;28;20040;-70
2022/03/16 01:48:48;;;;;;;9.15;5.53;;;;;;;20.73;33.63;101897.28;4185520;28;20041;-69
2022/03/16 01:50:53;;;;;;;8.38;4.78;;;;;;;20.74;33.67;101903.69;4185790;28;20067;-70
2022/03/16 01:52:54;;;;;;;7.38;5.53;;;;;;;20.73;33.32;101902.84;4185927;28;20418;-70
2022/03/16 01:55:04;;;;;;;8.05;5.22;;;;;;;20.73;33.67;101907.56;4186399;28;20041;-70
2022/03/16 01:57:11;;;;;;;8.65;5.60;;;;;;;20.74;33.41;101906.47;4183562;28;20086;-69
2022/03/16 01:59:12;;;;;;;7.30;5.03;;;;;;;20.73;33.49;101908.41;4185619;28;20047;-70
2022/03/16 02:01:14;;;;;;;6.28;5.10;;;;;;;20.72;33.31;101922.59;4192689;28;20106;-70
2022/03/16 02:03:16;;;;;;;8.07;5.65;;;;;;;20.73;33.75;101907.56;4198183;28;20040;-70
2022/03/16 02:05:18;;;;;;;8.85;5.63;;;;;;;20.74;33.57;101903.69;4199268;28;20067;-70
2022/03/16 02:07:22;;;;;;;8.88;5.75;;;;;;;20.73;33.43;101913.97;4186028;28;20090;-68
2022/03/16 02:09:24;;;;;;;9.10;5.25;;;;;;;20.67;33.74;101906.66;4182068;28;20094;-71
2022/03/16 02:11:25;;;;;;;6.78;5.22;;;;;;;20.73;33.91;101913.97;4184256;28;20801;-69
2022/03/16 02:13:26;;;;;;;9.27;5.20;;;;;;;20.73;34.04;101913.97;4181569;28;20068;-70
2022/03/16 02:15:28;;;;;;;7.18;4.93;;;;;;;20.74;33.90;101923.16;4186310;28;20103;-71
2022/03/16 02:17:32;;;;;;;8.10;5.28;;;;;;;20.71;34.11;101916.19;4199199;28;20078;-70
2022/03/16 02:19:34;;;;;;;8.00;5.13;;;;;;;20.73;33.79;101919.53;4201133;28;20025;-69
2022/03/16 02:21:45;;;;;;;7.53;5.18;;;;;;;20.71;33.84;101910.63;4199073;28;20106;-72
2022/03/16 02:23:47;;;;;;;13.02;5.35;;;;;;;20.75;33.75;101916.50;4199396;28;20029;-70
2022/03/16 02:25:53;;;;;;;12.50;5.10;;;;;;;20.73;33.83;101913.97;4202921;28;20101;-70
2022/03/16 02:27:55;;;;;;;9.70;5.65;;;;;;;20.68;33.93;101902.78;4196206;28;20487;-71
2022/03/16 02:29:57;;;;;;;10.35;5.30;;;;;;;20.72;33.74;101911.47;4198140;28;20040;-70
2022/03/16 02:31:58;;;;;;;19.35;5.72;;;;;;;20.74;33.76;101914.81;4202160;28;20494;-71
2022/03/16 02:33:59;;;;;;;9.95;5.60;;;;;;;20.73;33.75;101918.72;4201652;28;20037;-69
2022/03/16 02:36:04;;;;;;;16.55;5.70;;;;;;;20.75;34.16;101911.78;4202306;28;20549;-71
2022/03/16 02:38:06;;;;;;;9.38;5.40;;;;;;;20.75;33.79;101906.22;4201542;28;20082;-70
2022/03/16 02:40:10;;;;;;;9.82;5.57;;;;;;;20.73;33.73;101891.72;4200000;28;20040;-70
2022/03/16 02:42:12;;;;;;;8.90;5.72;;;;;;;20.76;33.85;101902.34;4200323;28;20049;-70
2022/03/16 02:44:13;;;;;;;12.10;5.22;;;;;;;20.68;34.13;101905.56;4200403;28;20036;-71
2022/03/16 02:46:15;;;;;;;11.30;5.05;;;;;;;20.76;34.20;101919.03;4201074;28;20044;-71
2022/03/16 02:48:16;;;;;;;8.65;4.85;;;;;;;20.76;34.12;101919.03;4200726;28;20075;-70
2022/03/16 02:50:19;;;;;;;12.20;5.50;;;;;;;20.76;34.09;101912.63;4200297;28;20033;-70
2022/03/16 02:52:23;;;;;;;14.57;5.35;;;;;;;20.75;34.69;101917.34;4198838;28;20044;-70
2022/03/16 02:54:25;;;;;;;15.65;5.28;;;;;;;20.76;34.40;101924.59;4200548;28;20094;-69
2022/03/16 02:56:27;;;;;;;9.93;5.32;;;;;;;20.73;34.87;101935.41;4200377;28;20178;-70
2022/03/16 02:58:28;;;;;;;14.32;5.75;;;;;;;20.77;34.83;101965.22;4183258;28;20087;-71
2022/03/16 03:00:30;;;;;;;10.77;5.28;;;;;;;20.73;35.20;101958.47;4201870;28;20032;-71
2022/03/16 03:02:31;;;;;;;9.50;5.47;;;;;;;20.77;35.05;101948.53;4200466;28;20048;-71
2022/03/16 03:04:32;;;;;;;12.52;5.90;;;;;;;20.77;35.50;101942.97;4201302;28;20423;-70
2022/03/16 03:06:34;;;;;;;10.57;5.60;;;;;;;20.77;35.43;101948.53;4200581;28;20086;-71
2022/03/16 03:08:35;;;;;;;12.25;5.07;;;;;;;20.75;35.55;101944.31;4201064;28;20495;-71
2022/03/16 03:10:37;;;;;;;11.65;5.65;;;;;;;20.78;35.96;101950.22;4200620;28;20070;-71
2022/03/16 03:12:38;;;;;;;9.35;5.00;;;;;;;20.79;35.91;101943.53;4212673;28;20674;-71
2022/03/16 03:14:40;;;;;;;11.55;5.53;;;;;;;20.78;36.06;101950.22;4216136;28;20040;-71
2022/03/16 03:16:41;;;;;;;9.57;5.40;;;;;;;20.79;36.37;101951.88;4213960;28;20506;-70
2022/03/16 03:18:42;;;;;;;15.07;5.70;;;;;;;20.80;36.28;101942.47;4212597;28;20109;-70
2022/03/16 03:20:44;;;;;;;8.50;5.18;;;;;;;20.81;36.31;101943.31;4213589;28;20047;-71
2022/03/16 03:22:45;;;;;;;12.48;4.80;;;;;;;20.81;36.21;101946.94;4216563;28;20032;-71
2022/03/16 03:24:47;;;;;;;12.27;5.50;;;;;;;20.83;36.96;101959.72;4216132;28;20036;-71
2022/03/16 03:26:51;;;;;;;14.32;6.07;;;;;;;20.82;37.05;101961.69;4196189;28;20494;-70
2022/03/16 03:28:52;;;;;;;9.90;5.15;;;;;;;20.78;37.05;101961.34;4183796;28;20028;-71
2022/03/16 03:30:53;;;;;;;10.25;4.70;;;;;;;20.83;36.77;101974.47;4194298;28;20048;-71
2022/03/16 03:32:56;;;;;;;8.13;4.85;;;;;;;20.83;37.19;101962.50;4211644;28;21645;-70
2022/03/16 03:34:57;;;;;;;8.55;4.45;;;;;;;20.85;37.34;101961.19;4216674;28;20469;-72
2022/03/16 03:37:01;;;;;;;9.70;5.28;;;;;;;20.78;37.24;101953.00;4209968;28;20418;-71
2022/03/16 03:39:06;;;;;;;11.70;5.43;;;;;;;20.80;37.51;101955.50;4200016;28;20357;-71
2022/03/16 03:41:07;;;;;;;7.55;4.78;;;;;;;20.85;37.77;101960.31;4205655;28;20093;-70
2022/03/16 03:43:09;;;;;;;13.45;4.97;;;;;;;20.86;37.73;101962.00;4197389;28;20037;-72
2022/03/16 03:45:11;;;;;;;9.00;5.47;;;;;;;20.85;37.78;101957.53;4166775;28;20068;-71
2022/03/16 03:47:13;;;;;;;8.75;4.75;;;;;;;20.87;38.03;101963.69;4181568;28;20071;-69
2022/03/16 03:49:14;;;;;;;8.77;5.05;;;;;;;20.83;38.24;101951.38;4200714;28;20044;-68
2022/03/16 03:51:16;;;;;;;9.32;4.72;;;;;;;20.80;36.49;101942.47;4180833;28;20040;-72
2022/03/16 03:53:20;;;;;;;7.20;4.88;;;;;;;20.88;36.19;101954.25;4198861;28;20067;-71
2022/03/16 03:55:23;;;;;;;8.82;4.47;;;;;;;20.85;35.65;101938.06;4208226;28;20074;-72
2022/03/16 03:57:24;;;;;;;7.20;4.35;;;;;;;20.90;35.31;101946.50;4210717;28;20373;-72
2022/03/16 03:59:32;;;;;;;7.15;4.20;;;;;;;20.91;35.25;101948.19;4189202;28;20040;-72
2022/03/16 04:01:33;;;;;;;7.97;4.93;;;;;;;20.94;35.35;101947.66;4202273;28;20381;-71
2022/03/16 04:03:37;;;;;;;9.30;4.80;;;;;;;20.93;34.82;101954.31;4199485;28;20082;-73
2022/03/16 04:05:38;;;;;;;8.98;4.40;;;;;;;20.94;35.83;101954.06;4178829;28;20045;-72
2022/03/16 04:07:42;;;;;;;8.25;4.78;;;;;;;20.93;35.29;101962.66;4165322;28;20037;-71
2022/03/16 04:09:44;;;;;;;7.05;4.30;;;;;;;20.96;35.48;101976.06;4186728;28;20423;-71
2022/03/16 04:11:45;;;;;;;6.57;4.00;;;;;;;20.98;36.34;101983.06;4199445;28;20036;-70
2022/03/16 04:13:47;;;;;;;7.43;4.63;;;;;;;20.95;36.36;101974.38;4214711;28;20048;-71
2022/03/16 04:15:48;;;;;;;6.72;4.20;;;;;;;20.97;36.24;101974.97;4200068;28;20025;-71
2022/03/16 04:17:49;;;;;;;7.97;4.38;;;;;;;21.01;35.92;101987.28;4216302;28;20089;-72
2022/03/16 04:19:51;;;;;;;11.63;4.72;;;;;;;21.01;37.27;101992.84;4205929;28;20086;-72
2022/03/16 04:21:52;;;;;;;7.97;4.72;;;;;;;20.96;38.48;101981.63;4198311;28;20033;-71
2022/03/16 04:23:54;;;;;;;7.45;4.07;;;;;;;21.02;38.49;101988.94;4204913;28;20024;-70
2022/03/16 04:25:56;;;;;;;10.68;4.65;;;;;;;21.03;39.81;101988.72;4210874;28;20044;-71
2022/03/16 04:28:00;;;;;;;7.00;4.30;;;;;;;21.04;38.47;101989.53;4198954;28;20052;-73
2022/03/16 04:30:04;;;;;;;7.35;4.40;;;;;;;21.05;38.40;101999.56;4202203;28;20484;-71
2022/03/16 04:32:06;;;;;;;6.63;4.20;;;;;;;21.05;39.53;102008.75;4190202;28;20102;-71
2022/03/16 04:34:10;;;;;;;10.48;4.10;;;;;;;21.06;38.97;102006.81;4182305;28;20190;-70
2022/03/16 04:36:15;;;;;;;9.02;4.63;;;;;;;21.03;39.38;102002.63;4209596;28;20035;-71
2022/03/16 04:38:17;;;;;;;8.43;3.50;;;;;;;21.06;40.02;102004.03;4210999;28;20081;-71
2022/03/16 04:40:19;;;;;;;7.13;3.88;;;;;;;21.02;39.76;102002.84;4202943;28;20075;-72
2022/03/16 04:42:20;;;;;;;8.05;4.18;;;;;;;21.00;39.76;101991.16;4198949;28;20054;-72
2022/03/16 04:44:22;;;;;;;5.75;4.28;;;;;;;21.08;40.23;102010.19;4198982;28;20036;-71
2022/03/16 04:46:23;;;;;;;6.90;4.30;;;;;;;21.08;40.10;102009.38;4198403;28;20036;-72
2022/03/16 04:48:25;;;;;;;9.90;4.53;;;;;;;21.08;40.09;102020.50;4199963;28;20041;-71
2022/03/16 04:50:26;;;;;;;7.47;4.32;;;;;;;21.08;39.86;102015.78;4199354;28;20048;-71
2022/03/16 04:52:28;;;;;;;6.82;3.95;;;;;;;20.92;39.77;101994.38;4200246;28;20086;-71
2022/03/16 04:54:29;;;;;;;6.93;4.05;;;;;;;20.89;39.56;101992.09;4199242;28;20161;-71
2022/03/16 04:56:35;;;;;;;7.97;4.68;;;;;;;21.08;39.38;102021.34;4198485;28;20185;-72
2022/03/16 04:58:38;;;;;;;5.95;4.00;;;;;;;21.07;39.09;102027.97;4192733;28;20086;-71
2022/03/16 05:00:40;;;;;;;6.18;4.35;;;;;;;21.09;39.46;102028.56;4199797;28;20122;-72
2022/03/16 05:02:41;;;;;;;8.30;4.43;;;;;;;21.07;39.07;102025.19;4199954;28;20040;-72
2022/03/16 05:04:46;;;;;;;8.20;4.00;;;;;;;21.08;39.00;102026.91;4181981;28;20126;-71
2022/03/16 05:06:47;;;;;;;6.18;3.95;;;;;;;21.06;38.77;102013.22;4199161;28;20033;-71
2022/03/16 05:08:51;;;;;;;6.75;4.28;;;;;;;21.02;38.57;102005.63;4207172;28;20036;-71
2022/03/16 05:10:55;;;;;;;6.80;4.03;;;;;;;21.07;38.95;102011.28;4203424;28;20040;-71
2022/03/16 05:12:59;;;;;;;7.57;4.25;;;;;;;21.08;38.47;102004.63;4199280;28;20040;-71
2022/03/16 05:15:01;;;;;;;5.40;3.67;;;;;;;21.10;38.42;102004.38;4188494;28;20102;-72
2022/03/16 05:17:02;;;;;;;5.88;3.30;;;;;;;21.08;38.11;101993.50;4183008;28;20044;-71
2022/03/16 05:19:04;;;;;;;8.77;3.80;;;;;;;21.08;38.47;101993.50;4182882;28;20041;-72
2022/03/16 05:21:09;;;;;;;7.35;3.63;;;;;;;21.08;38.19;102004.63;4182126;28;20037;-71
2022/03/16 05:23:10;;;;;;;6.80;3.90;;;;;;;21.06;38.51;101999.31;4182194;28;20477;-72
2022/03/16 05:25:16;;;;;;;8.13;3.92;;;;;;;21.06;38.65;101999.31;4182561;28;20041;-71
2022/03/16 05:27:21;;;;;;;6.75;4.45;;;;;;;21.08;38.26;101999.06;4197506;28;20040;-71
2022/03/16 05:29:22;;;;;;;5.60;4.10;;;;;;;21.07;38.17;101994.56;4199378;28;20041;-71
2022/03/16 05:31:29;;;;;;;5.15;3.70;;;;;;;21.04;38.22;102003.47;4199172;28;20110;-71
2022/03/16 05:33:31;;;;;;;7.80;4.47;;;;;;;21.03;37.53;101999.00;4199307;28;20032;-72
2022/03/16 05:35:40;;;;;;;5.43;3.80;;;;;;;21.06;37.54;102001.25;4199465;28;20041;-71
2022/03/16 05:37:41;;;;;;;5.55;4.00;;;;;;;21.08;37.86;102003.78;4197637;28;20024;-72
2022/03/16 05:39:42;;;;;;;7.47;4.13;;;;;;;21.07;37.83;102002.94;4198530;28;20041;-70
2022/03/16 05:41:48;;;;;;;6.47;3.80;;;;;;;21.05;37.50;101996.78;4201053;28;20036;-72
2022/03/16 05:43:50;;;;;;;6.07;3.90;;;;;;;21.06;37.73;101990.13;4200707;28;20052;-72
2022/03/16 05:45:54;;;;;;;6.13;3.60;;;;;;;21.00;37.46;101980.03;4199728;28;20037;-71
2022/03/16 05:47:55;;;;;;;5.70;3.30;;;;;;;21.04;37.45;101993.16;4199765;28;20036;-72
2022/03/16 05:49:57;;;;;;;5.50;3.63;;;;;;;21.06;37.26;101990.13;4199961;28;20040;-69
2022/03/16 05:52:01;;;;;;;8.00;4.20;;;;;;;21.00;37.44;101980.03;4198708;28;20439;-72
2022/03/16 05:54:03;;;;;;;5.73;3.30;;;;;;;21.05;37.26;101982.88;4186707;28;20436;-71
2022/03/16 05:56:07;;;;;;;7.20;4.50;;;;;;;21.04;36.97;101992.34;4184521;28;20423;-72
2022/03/16 05:58:08;;;;;;;3.95;3.55;;;;;;;21.01;37.23;101993.66;4181612;28;20045;-72
2022/03/16 06:00:14;;;;;;;5.13;3.58;;;;;;;21.02;36.90;101991.72;4183089;28;20091;-72
2022/03/16 06:02:16;;;;;;;5.85;3.42;;;;;;;21.03;37.02;101991.50;4185177;28;20114;-73
2022/03/16 06:04:17;;;;;;;5.22;3.75;;;;;;;20.99;36.62;101979.19;4197481;28;20036;-71
2022/03/16 06:06:20;;;;;;;4.90;3.20;;;;;;;21.02;36.78;101988.94;4199526;28;20033;-72
2022/03/16 06:08:24;;;;;;;5.93;3.83;;;;;;;21.04;37.05;101992.34;4202117;28;20025;-72
2022/03/16 06:10:25;;;;;;;5.13;3.78;;;;;;;20.99;36.90;101989.47;4201760;28;20040;-71
2022/03/16 06:12:29;;;;;;;8.50;3.88;;;;;;;21.01;36.89;101990.88;4200917;28;20041;-72
2022/03/16 06:14:31;;;;;;;4.95;3.88;;;;;;;20.97;36.50;101983.31;4201499;28;20098;-72
2022/03/16 06:16:33;;;;;;;7.22;3.55;;;;;;;21.02;36.74;102000.06;4201097;28;20125;-71
2022/03/16 06:18:37;;;;;;;5.70;3.47;;;;;;;21.03;36.15;102007.34;4198052;28;20075;-72
2022/03/16 06:20:39;;;;;;;4.50;3.50;;;;;;;20.99;36.10;102008.97;4216673;28;20044;-72
2022/03/16 06:22:40;;;;;;;4.85;3.70;;;;;;;21.02;36.70;102017.59;4214768;28;20036;-72
2022/03/16 06:24:47;;;;;;;5.25;3.72;;;;;;;21.03;36.27;102024.88;4210220;28;20098;-70
2022/03/16 06:26:48;;;;;;;5.75;3.63;;;;;;;21.02;36.24;102016.78;4196058;28;20089;-70
2022/03/16 06:28:49;;;;;;;5.03;3.45;;;;;;;21.02;36.08;102016.78;4200702;28;20090;-70
2022/03/16 06:30:51;;;;;;;5.25;3.78;;;;;;;21.02;36.27;102008.41;4200999;28;20044;-71
2022/03/16 06:32:52;;;;;;;4.88;3.60;;;;;;;21.02;36.14;102011.22;4210465;28;20039;-72
2022/03/16 06:34:54;;;;;;;7.00;3.45;;;;;;;21.02;36.50;102025.13;4206511;28;20037;-71
2022/03/16 06:36:58;;;;;;;6.35;3.80;;;;;;;21.01;36.23;102017.88;4211032;28;20048;-72
2022/03/16 06:38:59;;;;;;;6.97;3.78;;;;;;;21.01;35.74;102020.66;4213071;28;20097;-71
2022/03/16 06:41:00;;;;;;;5.07;3.45;;;;;;;21.00;35.63;102022.59;4205429;28;20044;-71
2022/03/16 06:43:02;;;;;;;5.00;3.72;;;;;;;20.97;35.95;102019.47;4197948;28;20061;-71
2022/03/16 06:45:06;;;;;;;4.93;3.45;;;;;;;21.02;35.79;102016.78;4206628;28;20097;-71
2022/03/16 06:47:10;;;;;;;5.38;3.95;;;;;;;21.01;35.47;102015.09;4204025;28;20024;-71
2022/03/16 06:49:12;;;;;;;7.00;3.50;;;;;;;20.96;35.50;101998.31;4213411;28;20036;-71
2022/03/16 06:51:15;;;;;;;5.43;3.47;;;;;;;21.01;35.42;102004.81;4200583;28;20052;-71
2022/03/16 06:53:17;;;;;;;4.32;3.40;;;;;;;21.02;35.39;102011.22;4206814;28;20048;-71
2022/03/16 06:55:18;;;;;;;4.95;3.90;;;;;;;21.00;35.78;102010.63;4215656;28;20492;-71
2022/03/16 06:57:20;;;;;;;5.70;3.50;;;;;;;21.00;35.77;102002.28;4209005;28;20036;-71
2022/03/16 06:59:21;;;;;;;6.18;3.80;;;;;;;21.00;35.25;102013.41;4209266;28;20090;-71
2022/03/16 07:01:22;;;;;;;4.55;3.33;;;;;;;20.93;35.14;102007.19;4215484;28;20039;-71
2022/03/16 07:03:24;;;;;;;5.65;3.53;;;;;;;20.95;35.22;101999.44;4216988;28;20031;-72
2022/03/16 07:05:30;;;;;;;4.45;3.55;;;;;;;20.96;35.52;102003.88;4206188;28;20114;-72
2022/03/16 07:07:32;;;;;;;4.10;3.20;;;;;;;21.00;35.00;102005.06;4199415;28;20045;-72
2022/03/16 07:09:33;;;;;;;5.22;3.47;;;;;;;20.99;34.89;102011.75;4214016;28;20101;-72
2022/03/16 07:11:34;;;;;;;5.45;3.78;;;;;;;21.00;35.06;102002.28;4217473;28;20578;-72
2022/03/16 07:13:36;;;;;;;4.65;3.38;;;;;;;21.00;34.97;102005.06;4206100;28;20148;-72
2022/03/16 07:15:40;;;;;;;3.28;2.97;;;;;;;20.98;35.01;102005.34;4199212;28;20044;-71
2022/03/16 07:17:42;;;;;;;4.25;3.60;;;;;;;20.99;34.87;102003.38;4187479;28;20045;-71
2022/03/16 07:19:43;;;;;;;7.22;4.03;;;;;;;20.99;34.92;102000.59;4213281;28;20036;-71
2022/03/16 07:21:45;;;;;;;3.78;2.97;;;;;;;20.99;35.04;101989.47;4213728;28;20089;-71
2022/03/16 07:23:47;;;;;;;4.55;3.28;;;;;;;20.98;35.20;101976.63;4215918;28;20044;-71
2022/03/16 07:25:52;;;;;;;4.22;3.30;;;;;;;20.97;34.81;101991.66;4209235;28;20044;-71
2022/03/16 07:27:53;;;;;;;4.60;3.33;;;;;;;20.99;35.07;101995.03;4199557;28;20070;-71
2022/03/16 07:29:54;;;;;;;7.85;3.70;;;;;;;20.98;34.77;101987.78;4200301;28;20028;-71
2022/03/16 07:31:58;;;;;;;4.30;3.40;;;;;;;20.98;35.00;101988.63;4201447;28;20044;-71
2022/03/16 07:34:00;;;;;;;6.40;3.20;;;;;;;20.99;34.72;101992.25;4201147;28;20070;-71
2022/03/16 07:36:04;;;;;;;6.75;2.85;;;;;;;20.98;34.62;101983.06;4199447;28;20094;-72
2022/03/16 07:38:07;;;;;;;4.22;3.33;;;;;;;20.96;34.72;101973.28;4203954;28;20036;-72
2022/03/16 07:40:12;;;;;;;4.40;3.60;;;;;;;20.94;34.96;101973.56;4199001;28;20098;-72
2022/03/16 07:42:14;;;;;;;4.90;3.30;;;;;;;20.98;34.59;101965.50;4199892;28;20497;-72
2022/03/16 07:44:15;;;;;;;4.78;3.45;;;;;;;20.98;34.79;101971.06;4199498;28;20472;-72
2022/03/16 07:46:17;;;;;;;3.50;3.00;;;;;;;20.97;34.83;101964.66;4200364;28;20048;-72
2022/03/16 07:48:18;;;;;;;4.15;3.40;;;;;;;20.93;34.97;101962.66;4200523;28;20049;-72
2022/03/16 07:50:19;;;;;;;4.90;3.05;;;;;;;20.97;34.40;101975.81;4200666;28;20090;-70
2022/03/16 07:52:21;;;;;;;4.97;3.55;;;;;;;20.97;34.78;101970.22;4199696;28;20044;-71
2022/03/16 07:54:22;;;;;;;4.15;3.20;;;;;;;20.96;34.60;101973.28;4183271;28;20041;-70
2022/03/16 07:56:24;;;;;;;4.57;3.42;;;;;;;20.91;34.85;101964.88;4200467;28;20032;-70
2022/03/16 07:58:25;;;;;;;6.55;3.28;;;;;;;20.94;34.48;101976.34;4204470;28;20032;-71
2022/03/16 08:00:27;;;;;;;4.40;3.38;;;;;;;20.95;34.26;101977.19;4203338;28;20040;-72
2022/03/16 08:02:28;;;;;;;6.68;3.20;;;;;;;20.95;34.50;101971.59;4210486;28;20433;-72
2022/03/16 08:04:29;;;;;;;4.60;3.67;;;;;;;20.95;34.23;101971.59;4203086;28;20040;-72
2022/03/16 08:06:31;;;;;;;5.95;3.83;;;;;;;20.95;34.52;101974.38;4202295;28;20040;-72
2022/03/16 08:08:41;;;;;;;5.65;3.63;;;;;;;20.94;34.44;101975.50;4204454;28;20101;-71
2022/03/16 08:10:42;;;;;;;4.35;3.30;;;;;;;20.96;34.66;101989.97;4193725;28;20094;-71
2022/03/16 08:12:44;;;;;;;5.45;3.10;;;;;;;20.92;34.00;101977.69;4187466;28;20056;-71
2022/03/16 08:14:48;;;;;;;4.13;2.83;;;;;;;20.77;33.85;101956.03;4204155;28;20033;-71
2022/03/16 08:16:50;;;;;;;6.63;3.90;;;;;;;20.95;33.95;101988.31;4212959;28;20036;-71
2022/03/16 08:18:54;;;;;;;3.50;3.10;;;;;;;20.96;34.02;101989.97;4201372;28;20040;-71
2022/03/16 08:20:57;;;;;;;6.03;3.50;;;;;;;20.95;34.37;101996.66;4199333;28;20079;-72
2022/03/16 08:22:59;;;;;;;6.00;3.15;;;;;;;20.96;34.22;102001.09;4199873;28;20614;-72
2022/03/16 08:25:06;;;;;;;4.88;3.53;;;;;;;20.94;34.30;102009.72;4200509;28;20062;-71
2022/03/16 08:27:07;;;;;;;5.07;3.35;;;;;;;20.95;33.90;102011.41;4216593;28;20043;-70
2022/03/16 08:29:08;;;;;;;5.25;3.63;;;;;;;20.95;34.34;102005.84;4212391;28;20138;-71
2022/03/16 08:31:11;;;;;;;5.38;3.25;;;;;;;20.95;34.11;102005.00;4203754;28;20104;-71
2022/03/16 08:33:16;;;;;;;5.75;3.42;;;;;;;20.91;34.07;101985.19;4210844;28;20048;-71
2022/03/16 08:35:18;;;;;;;7.00;3.40;;;;;;;20.95;33.85;101993.88;4203257;28;20488;-71
2022/03/16 08:37:19;;;;;;;4.53;3.70;;;;;;;20.94;34.15;101992.19;4213132;28;20074;-71
2022/03/16 08:39:21;;;;;;;4.28;3.13;;;;;;;20.95;33.84;101996.66;4202059;28;20044;-72
2022/03/16 08:41:22;;;;;;;5.65;3.53;;;;;;;20.95;34.29;102008.63;4183207;28;20139;-71
2022/03/16 08:43:29;;;;;;;4.13;3.30;;;;;;;20.95;34.29;102000.28;4213220;28;20044;-71
2022/03/16 08:45:31;;;;;;;6.88;4.10;;;;;;;20.94;33.98;102003.31;4216473;28;20066;-71
2022/03/16 08:47:37;;;;;;;4.28;3.88;;;;;;;20.94;34.14;102004.16;4209055;28;20087;-70
2022/03/16 08:49:38;;;;;;;4.70;3.78;;;;;;;20.95;33.97;102010.56;4182940;28;20048;-70
2022/03/16 08:51:40;;;;;;;6.03;3.90;;;;;;;20.93;34.12;102008.00;4130590;28;20109;-71
2022/03/16 08:53:41;;;;;;;5.13;3.80;;;;;;;20.94;33.76;102003.31;4162613;28;20038;-70
2022/03/16 08:55:42;;;;;;;7.38;3.90;;;;;;;20.94;34.01;102008.88;4181126;28;20432;-71
2022/03/16 08:57:44;;;;;;;6.60;4.07;;;;;;;20.94;33.52;102020.00;4181368;28;20087;-71
2022/03/16 08:59:45;;;;;;;5.47;3.90;;;;;;;20.93;33.89;102021.94;4185672;28;20101;-71
2022/03/16 09:01:47;;;;;;;8.48;4.45;;;;;;;20.91;33.83;102018.56;4198072;28;20024;-70
2022/03/16 09:03:49;;;;;;;5.72;3.90;;;;;;;20.93;33.86;102029.44;4198326;28;20101;-71
2022/03/16 09:05:52;;;;;;;5.93;4.35;;;;;;;20.91;33.77;102031.66;4198320;28;20098;-71
2022/03/16 09:07:54;;;;;;;5.90;3.85;;;;;;;20.94;33.57;102031.16;4198358;28;20045;-71
2022/03/16 09:09:55;;;;;;;6.95;4.72;;;;;;;20.93;33.60;102040.56;4198272;28;20040;-70
2022/03/16 09:11:57;;;;;;;5.30;4.53;;;;;;;20.91;33.49;102031.66;4198003;28;20044;-71
2022/03/16 09:13:58;;;;;;;8.13;5.18;;;;;;;20.92;33.58;102038.88;4198020;28;20040;-71
2022/03/16 09:16:01;;;;;;;7.22;5.13;;;;;;;20.91;33.77;102043.63;4196747;28;20040;-71
2022/03/16 09:18:03;;;;;;;6.35;4.63;;;;;;;20.92;33.58;102036.94;4198622;28;20041;-69
2022/03/16 09:20:10;;;;;;;7.45;5.43;;;;;;;20.93;33.38;102035.00;4192098;28;20037;-71
2022/03/16 09:22:11;;;;;;;7.65;4.97;;;;;;;20.91;33.34;102028.88;4197419;28;20094;-71
2022/03/16 09:24:15;;;;;;;8.35;5.72;;;;;;;20.92;33.44;102033.31;4205167;28;20090;-70
2022/03/16 09:26:17;;;;;;;9.23;5.22;;;;;;;20.90;33.88;102039.16;4212778;28;20418;-70
2022/03/16 09:28:21;;;;;;;6.50;5.13;;;;;;;20.90;33.31;102038.31;4197874;28;20476;-70